sensor_id;sensor_type;location;lat;lon;timestamp;pressure;altitude;pressure_sealevel;temperature;humidity
62895;BME280;49204;44.916;37.998;2023-02-10T00:01:41;103357.08;;;-10.81;62.57
62895;BME280;49204;44.916;37.998;2023-02-10T00:04:11;103352.82;;;-10.91;62.76
62895;BME280;49204;44.916;37.998;2023-02-10T00:06:40;103349.73;;;-10.97;62.88
62895;BME280;49204;44.916;37.998;2023-02-10T00:09:11;103351.89;;;-10.96;62.96
62895;BME280;49204;44.916;37.998;2023-02-10T00:11:42;103356.14;;;-10.92;62.88
62895;BME280;49204;44.916;37.998;2023-02-10T00:14:28;103352.82;;;-10.91;62.73
62895;BME280;49204;44.916;37.998;2023-02-10T00:16:57;103344.80;;;-10.90;62.65
62895;BME280;49204;44.916;37.998;2023-02-10T00:19:28;103347.73;;;-10.91;62.54
62895;BME280;49204;44.916;37.998;2023-02-10T00:21:59;103343.47;;;-11.00;62.51
62895;BME280;49204;44.916;37.998;2023-02-10T00:24:28;103343.00;;;-11.10;62.66
62895;BME280;49204;44.916;37.998;2023-02-10T00:26:57;103355.51;;;-11.08;62.67
62895;BME280;49204;44.916;37.998;2023-02-10T00:29:26;103344.27;;;-11.10;62.54
62895;BME280;49204;44.916;37.998;2023-02-10T00:31:55;103348.08;;;-11.10;62.48
62895;BME280;49204;44.916;37.998;2023-02-10T00:34:24;103351.55;;;-11.10;62.42
62895;BME280;49204;44.916;37.998;2023-02-10T00:36:53;103352.23;;;-11.16;62.46
62895;BME280;49204;44.916;37.998;2023-02-10T00:39:21;103344.92;;;-11.27;62.46
62895;BME280;49204;44.916;37.998;2023-02-10T00:41:50;103339.45;;;-11.40;62.58
62895;BME280;49204;44.916;37.998;2023-02-10T00:44:19;103334.05;;;-11.48;62.75
62895;BME280;49204;44.916;37.998;2023-02-10T00:46:48;103337.42;;;-11.53;62.74
62895;BME280;49204;44.916;37.998;2023-02-10T00:49:17;103335.19;;;-11.63;62.88
62895;BME280;49204;44.916;37.998;2023-02-10T00:51:45;103325.20;;;-11.71;63.15
62895;BME280;49204;44.916;37.998;2023-02-10T00:54:14;103341.04;;;-11.73;63.27
62895;BME280;49204;44.916;37.998;2023-02-10T00:56:44;103343.81;;;-11.75;63.28
62895;BME280;49204;44.916;37.998;2023-02-10T00:59:13;103337.38;;;-11.72;63.12
62895;BME280;49204;44.916;37.998;2023-02-10T01:01:42;103331.67;;;-11.69;62.91
62895;BME280;49204;44.916;37.998;2023-02-10T01:04:11;103328.54;;;-11.67;62.76
62895;BME280;49204;44.916;37.998;2023-02-10T01:06:40;103328.45;;;-11.63;62.68
62895;BME280;49204;44.916;37.998;2023-02-10T01:09:09;103325.66;;;-11.61;62.65
62895;BME280;49204;44.916;37.998;2023-02-10T01:11:38;103319.16;;;-11.62;62.83
62895;BME280;49204;44.916;37.998;2023-02-10T01:14:06;103314.61;;;-11.61;62.93
62895;BME280;49204;44.916;37.998;2023-02-10T01:16:35;103322.14;;;-11.58;62.95
62895;BME280;49204;44.916;37.998;2023-02-10T01:19:04;103316.67;;;-11.57;62.84
62895;BME280;49204;44.916;37.998;2023-02-10T01:21:33;103316.05;;;-11.55;62.74
62895;BME280;49204;44.916;37.998;2023-02-10T01:24:05;103312.77;;;-11.54;62.67
62895;BME280;49204;44.916;37.998;2023-02-10T01:26:34;103307.16;;;-11.55;62.52
62895;BME280;49204;44.916;37.998;2023-02-10T01:29:03;103313.89;;;-11.55;62.41
62895;BME280;49204;44.916;37.998;2023-02-10T01:31:31;103313.10;;;-11.59;62.35
62895;BME280;49204;44.916;37.998;2023-02-10T01:34:00;103312.02;;;-11.67;62.31
62895;BME280;49204;44.916;37.998;2023-02-10T01:36:29;103305.05;;;-11.78;62.29
62895;BME280;49204;44.916;37.998;2023-02-10T01:38:57;103311.44;;;-11.87;62.28
62895;BME280;49204;44.916;37.998;2023-02-10T01:41:26;103313.59;;;-11.91;62.40
62895;BME280;49204;44.916;37.998;2023-02-10T01:46:34;103292.38;;;-12.14;62.61
62895;BME280;49204;44.916;37.998;2023-02-10T01:49:09;103292.22;;;-12.16;62.71
62895;BME280;49204;44.916;37.998;2023-02-10T01:51:46;103299.11;;;-12.15;62.76
62895;BME280;49204;44.916;37.998;2023-02-10T01:54:18;103290.48;;;-12.12;62.76
62895;BME280;49204;44.916;37.998;2023-02-10T01:56:47;103290.55;;;-12.07;62.67
62895;BME280;49204;44.916;37.998;2023-02-10T01:59:16;103291.02;;;-12.11;62.65
62895;BME280;49204;44.916;37.998;2023-02-10T02:01:46;103288.47;;;-12.11;62.52
62895;BME280;49204;44.916;37.998;2023-02-10T02:04:15;103285.16;;;-12.10;62.58
62895;BME280;49204;44.916;37.998;2023-02-10T02:06:43;103284.05;;;-12.08;62.58
62895;BME280;49204;44.916;37.998;2023-02-10T02:09:13;103278.61;;;-12.08;62.58
62895;BME280;49204;44.916;37.998;2023-02-10T02:12:04;103288.39;;;-12.07;62.47
62895;BME280;49204;44.916;37.998;2023-02-10T02:14:36;103286.67;;;-12.12;62.49
62895;BME280;49204;44.916;37.998;2023-02-10T02:23:24;103275.21;;;-12.17;62.31
62895;BME280;49204;44.916;37.998;2023-02-10T02:26:23;103277.77;;;-12.26;62.18
62895;BME280;49204;44.916;37.998;2023-02-10T02:34:37;103271.38;;;-12.39;62.29
62895;BME280;49204;44.916;37.998;2023-02-10T02:37:16;103271.99;;;-12.42;62.32
62895;BME280;49204;44.916;37.998;2023-02-10T02:39:52;103268.72;;;-12.41;62.21
62895;BME280;49204;44.916;37.998;2023-02-10T02:42:28;103264.23;;;-12.44;62.25
62895;BME280;49204;44.916;37.998;2023-02-10T02:45:09;103268.03;;;-12.44;62.26
62895;BME280;49204;44.916;37.998;2023-02-10T03:01:08;103260.50;;;-12.47;62.19
62895;BME280;49204;44.916;37.998;2023-02-10T03:03:36;103253.50;;;-12.50;62.22
62895;BME280;49204;44.916;37.998;2023-02-10T03:06:06;103250.20;;;-12.49;62.39
62895;BME280;49204;44.916;37.998;2023-02-10T03:08:38;103245.95;;;-12.45;62.35
62895;BME280;49204;44.916;37.998;2023-02-10T03:11:07;103251.69;;;-12.42;62.28
62895;BME280;49204;44.916;37.998;2023-02-10T03:13:36;103251.45;;;-12.40;62.29
62895;BME280;49204;44.916;37.998;2023-02-10T03:16:05;103246.76;;;-12.40;62.28
62895;BME280;49204;44.916;37.998;2023-02-10T03:18:33;103253.04;;;-12.46;62.21
62895;BME280;49204;44.916;37.998;2023-02-10T03:21:02;103259.70;;;-12.51;62.24
62895;BME280;49204;44.916;37.998;2023-02-10T03:23:31;103255.02;;;-12.60;62.31
62895;BME280;49204;44.916;37.998;2023-02-10T03:26:02;103241.19;;;-12.82;62.65
62895;BME280;49204;44.916;37.998;2023-02-10T03:28:30;103240.08;;;-12.89;62.90
62895;BME280;49204;44.916;37.998;2023-02-10T03:31:04;103246.73;;;-12.94;62.95
62895;BME280;49204;44.916;37.998;2023-02-10T03:33:33;103247.11;;;-13.04;63.01
62895;BME280;49204;44.916;37.998;2023-02-10T03:36:02;103251.72;;;-13.08;63.07
62895;BME280;49204;44.916;37.998;2023-02-10T03:38:31;103255.38;;;-13.01;63.05
62895;BME280;49204;44.916;37.998;2023-02-10T03:40:59;103259.69;;;-12.91;62.98
62895;BME280;49204;44.916;37.998;2023-02-10T03:43:28;103260.80;;;-12.84;62.90
62895;BME280;49204;44.916;37.998;2023-02-10T03:46:01;103258.95;;;-12.82;62.94
62895;BME280;49204;44.916;37.998;2023-02-10T03:48:30;103251.92;;;-12.75;62.99
62895;BME280;49204;44.916;37.998;2023-02-10T03:51:00;103257.06;;;-12.70;62.86
62895;BME280;49204;44.916;37.998;2023-02-10T03:53:30;103255.10;;;-12.64;62.77
62895;BME280;49204;44.916;37.998;2023-02-10T03:55:59;103253.22;;;-12.62;62.69
62895;BME280;49204;44.916;37.998;2023-02-10T03:58:28;103263.52;;;-12.60;62.62
62895;BME280;49204;44.916;37.998;2023-02-10T04:00:57;103265.83;;;-12.58;62.53
62895;BME280;49204;44.916;37.998;2023-02-10T04:03:25;103262.72;;;-12.64;62.48
62895;BME280;49204;44.916;37.998;2023-02-10T04:05:54;103254.38;;;-12.80;62.53
62895;BME280;49204;44.916;37.998;2023-02-10T04:08:24;103256.27;;;-12.92;62.67
62895;BME280;49204;44.916;37.998;2023-02-10T04:10:52;103258.88;;;-13.04;62.81
62895;BME280;49204;44.916;37.998;2023-02-10T04:13:21;103269.24;;;-13.06;62.82
62895;BME280;49204;44.916;37.998;2023-02-10T04:15:59;103263.35;;;-13.19;62.88
62895;BME280;49204;44.916;37.998;2023-02-10T04:18:19;103274.33;;;-13.24;63.00
62895;BME280;49204;44.916;37.998;2023-02-10T04:20:50;103273.80;;;-13.25;63.00
62895;BME280;49204;44.916;37.998;2023-02-10T04:23:18;103273.29;;;-13.26;63.07
62895;BME280;49204;44.916;37.998;2023-02-10T04:25:47;103275.14;;;-13.19;63.03
62895;BME280;49204;44.916;37.998;2023-02-10T04:28:16;103290.72;;;-13.11;62.89
62895;BME280;49204;44.916;37.998;2023-02-10T04:30:44;103288.25;;;-13.15;62.86
62895;BME280;49204;44.916;37.998;2023-02-10T04:33:13;103286.69;;;-13.27;63.19
62895;BME280;49204;44.916;37.998;2023-02-10T04:35:42;103289.84;;;-13.29;63.45
62895;BME280;49204;44.916;37.998;2023-02-10T04:38:11;103285.28;;;-13.19;63.38
62895;BME280;49204;44.916;37.998;2023-02-10T04:40:40;103283.11;;;-13.11;63.24
62895;BME280;49204;44.916;37.998;2023-02-10T04:43:11;103288.88;;;-13.09;63.23
62895;BME280;49204;44.916;37.998;2023-02-10T04:45:40;103296.34;;;-13.02;63.16
62895;BME280;49204;44.916;37.998;2023-02-10T04:48:09;103296.04;;;-12.96;63.10
62895;BME280;49204;44.916;37.998;2023-02-10T04:50:38;103292.69;;;-13.00;63.20
62895;BME280;49204;44.916;37.998;2023-02-10T04:53:07;103286.84;;;-13.08;63.24
62895;BME280;49204;44.916;37.998;2023-02-10T04:55:35;103296.91;;;-13.04;63.18
62895;BME280;49204;44.916;37.998;2023-02-10T04:58:04;103301.98;;;-13.04;63.13
62895;BME280;49204;44.916;37.998;2023-02-10T05:00:34;103302.84;;;-13.00;63.04
62895;BME280;49204;44.916;37.998;2023-02-10T05:03:02;103310.42;;;-12.91;63.03
62895;BME280;49204;44.916;37.998;2023-02-10T05:05:31;103306.93;;;-12.79;63.07
62895;BME280;49204;44.916;37.998;2023-02-10T05:08:00;103300.05;;;-12.63;63.07
62895;BME280;49204;44.916;37.998;2023-02-10T05:10:28;103300.89;;;-12.45;62.98
62895;BME280;49204;44.916;37.998;2023-02-10T05:12:57;103311.10;;;-12.31;62.79
62895;BME280;49204;44.916;37.998;2023-02-10T05:15:26;103309.34;;;-12.18;62.70
62895;BME280;49204;44.916;37.998;2023-02-10T05:17:54;103314.20;;;-12.02;62.68
62895;BME280;49204;44.916;37.998;2023-02-10T05:20:23;103314.09;;;-11.90;62.66
62895;BME280;49204;44.916;37.998;2023-02-10T05:22:52;103319.50;;;-11.82;62.48
62895;BME280;49204;44.916;37.998;2023-02-10T05:25:20;103314.92;;;-11.81;62.32
62895;BME280;49204;44.916;37.998;2023-02-10T05:27:49;103317.28;;;-11.74;62.28
62895;BME280;49204;44.916;37.998;2023-02-10T05:30:17;103326.00;;;-11.67;62.28
62895;BME280;49204;44.916;37.998;2023-02-10T05:32:46;103325.09;;;-11.53;62.23
62895;BME280;49204;44.916;37.998;2023-02-10T05:35:15;103320.66;;;-11.37;62.20
62895;BME280;49204;44.916;37.998;2023-02-10T05:37:44;103326.80;;;-11.16;62.14
62895;BME280;49204;44.916;37.998;2023-02-10T05:40:12;103327.23;;;-10.92;62.09
62895;BME280;49204;44.916;37.998;2023-02-10T05:42:41;103318.97;;;-10.71;62.16
62895;BME280;49204;44.916;37.998;2023-02-10T05:45:10;103319.96;;;-10.55;62.08
62895;BME280;49204;44.916;37.998;2023-02-10T05:47:38;103315.39;;;-10.49;61.86
62895;BME280;49204;44.916;37.998;2023-02-10T05:50:08;103311.80;;;-10.56;61.54
62895;BME280;49204;44.916;37.998;2023-02-10T05:52:36;103312.78;;;-10.59;61.47
62895;BME280;49204;44.916;37.998;2023-02-10T05:55:05;103314.97;;;-10.58;61.47
62895;BME280;49204;44.916;37.998;2023-02-10T05:57:34;103313.09;;;-10.51;61.56
62895;BME280;49204;44.916;37.998;2023-02-10T06:00:04;103310.11;;;-10.36;61.67
62895;BME280;49204;44.916;37.998;2023-02-10T06:02:35;103312.04;;;-10.23;61.77
62895;BME280;49204;44.916;37.998;2023-02-10T06:05:04;103313.44;;;-10.17;61.79
62895;BME280;49204;44.916;37.998;2023-02-10T06:07:32;103309.66;;;-10.01;61.85
62895;BME280;49204;44.916;37.998;2023-02-10T06:10:01;103312.15;;;-9.82;61.76
62895;BME280;49204;44.916;37.998;2023-02-10T06:12:30;103308.98;;;-9.69;61.54
62895;BME280;49204;44.916;37.998;2023-02-10T06:14:58;103311.80;;;-9.56;61.50
62895;BME280;49204;44.916;37.998;2023-02-10T06:17:27;103312.71;;;-9.40;61.46
62895;BME280;49204;44.916;37.998;2023-02-10T06:19:56;103312.44;;;-9.28;61.36
62895;BME280;49204;44.916;37.998;2023-02-10T06:22:24;103304.42;;;-9.27;61.18
62895;BME280;49204;44.916;37.998;2023-02-10T06:24:53;103306.19;;;-9.21;61.18
62895;BME280;49204;44.916;37.998;2023-02-10T06:27:21;103304.92;;;-9.16;61.01
62895;BME280;49204;44.916;37.998;2023-02-10T06:29:50;103304.27;;;-9.14;61.07
62895;BME280;49204;44.916;37.998;2023-02-10T06:32:19;103306.30;;;-8.99;61.17
62895;BME280;49204;44.916;37.998;2023-02-10T06:34:47;103306.39;;;-8.87;61.15
62895;BME280;49204;44.916;37.998;2023-02-10T06:37:16;103307.66;;;-8.82;61.03
62895;BME280;49204;44.916;37.998;2023-02-10T06:39:44;103307.27;;;-8.77;60.96
62895;BME280;49204;44.916;37.998;2023-02-10T06:42:13;103305.94;;;-8.61;61.11
62895;BME280;49204;44.916;37.998;2023-02-10T06:44:42;103311.59;;;-8.38;61.16
62895;BME280;49204;44.916;37.998;2023-02-10T06:47:11;103310.28;;;-8.28;61.32
62895;BME280;49204;44.916;37.998;2023-02-10T06:49:40;103315.06;;;-8.16;61.27
62895;BME280;49204;44.916;37.998;2023-02-10T06:52:08;103315.42;;;-8.06;61.25
62895;BME280;49204;44.916;37.998;2023-02-10T06:54:37;103318.44;;;-8.00;61.05
62895;BME280;49204;44.916;37.998;2023-02-10T06:57:06;103317.31;;;-8.03;61.28
62895;BME280;49204;44.916;37.998;2023-02-10T06:59:34;103314.46;;;-7.96;61.42
62895;BME280;49204;44.916;37.998;2023-02-10T07:02:03;103318.05;;;-7.77;61.36
62895;BME280;49204;44.916;37.998;2023-02-10T07:04:32;103313.66;;;-7.73;61.55
62895;BME280;49204;44.916;37.998;2023-02-10T07:07:00;103309.89;;;-7.61;61.60
62895;BME280;49204;44.916;37.998;2023-02-10T07:09:29;103310.86;;;-7.37;61.49
62895;BME280;49204;44.916;37.998;2023-02-10T07:11:58;103312.95;;;-7.26;60.95
62895;BME280;49204;44.916;37.998;2023-02-10T07:14:27;103314.15;;;-7.33;60.77
62895;BME280;49204;44.916;37.998;2023-02-10T07:16:55;103321.74;;;-7.40;61.19
62895;BME280;49204;44.916;37.998;2023-02-10T07:19:24;103314.55;;;-7.33;61.34
62895;BME280;49204;44.916;37.998;2023-02-10T07:21:53;103310.80;;;-7.15;61.20
62895;BME280;49204;44.916;37.998;2023-02-10T07:24:22;103320.33;;;-7.07;61.46
62895;BME280;49204;44.916;37.998;2023-02-10T07:26:50;103327.94;;;-6.97;61.24
62895;BME280;49204;44.916;37.998;2023-02-10T07:29:19;103316.73;;;-6.92;60.86
62895;BME280;49204;44.916;37.998;2023-02-10T07:31:48;103315.36;;;-6.82;60.73
62895;BME280;49204;44.916;37.998;2023-02-10T07:34:16;103323.93;;;-6.82;60.80
62895;BME280;49204;44.916;37.998;2023-02-10T07:36:48;103314.28;;;-6.79;60.78
62895;BME280;49204;44.916;37.998;2023-02-10T07:39:19;103314.00;;;-6.77;60.97
62895;BME280;49204;44.916;37.998;2023-02-10T07:41:48;103316.98;;;-6.66;60.91
62895;BME280;49204;44.916;37.998;2023-02-10T07:44:19;103308.73;;;-6.62;60.70
62895;BME280;49204;44.916;37.998;2023-02-10T07:46:54;103320.43;;;-6.65;60.86
62895;BME280;49204;44.916;37.998;2023-02-10T07:49:22;103316.19;;;-6.65;61.13
62895;BME280;49204;44.916;37.998;2023-02-10T07:51:52;103315.58;;;-6.55;61.04
62895;BME280;49204;44.916;37.998;2023-02-10T07:54:20;103310.54;;;-6.42;60.93
62895;BME280;49204;44.916;37.998;2023-02-10T07:56:49;103307.18;;;-6.29;60.89
62895;BME280;49204;44.916;37.998;2023-02-10T07:59:18;103302.39;;;-6.25;60.76
62895;BME280;49204;44.916;37.998;2023-02-10T08:01:46;103304.39;;;-6.21;60.76
62895;BME280;49204;44.916;37.998;2023-02-10T08:04:15;103302.24;;;-6.14;60.74
62895;BME280;49204;44.916;37.998;2023-02-10T08:06:44;103310.87;;;-6.07;60.63
62895;BME280;49204;44.916;37.998;2023-02-10T08:09:12;103303.75;;;-6.11;60.52
62895;BME280;49204;44.916;37.998;2023-02-10T08:11:42;103308.82;;;-6.06;60.53
62895;BME280;49204;44.916;37.998;2023-02-10T08:14:11;103309.75;;;-5.99;60.63
62895;BME280;49204;44.916;37.998;2023-02-10T08:16:40;103323.83;;;-5.80;60.56
62895;BME280;49204;44.916;37.998;2023-02-10T08:19:08;103319.74;;;-5.65;60.35
62895;BME280;49204;44.916;37.998;2023-02-10T08:21:37;103312.67;;;-5.56;60.30
62895;BME280;49204;44.916;37.998;2023-02-10T08:24:06;103315.23;;;-5.56;60.73
62895;BME280;49204;44.916;37.998;2023-02-10T08:26:34;103316.74;;;-5.53;60.73
62895;BME280;49204;44.916;37.998;2023-02-10T08:29:03;103317.66;;;-5.46;60.83
62895;BME280;49204;44.916;37.998;2023-02-10T08:31:32;103320.16;;;-5.34;60.85
62895;BME280;49204;44.916;37.998;2023-02-10T08:34:00;103321.14;;;-5.32;60.92
62895;BME280;49204;44.916;37.998;2023-02-10T08:36:29;103321.95;;;-5.26;60.77
62895;BME280;49204;44.916;37.998;2023-02-10T08:38:58;103318.05;;;-5.14;60.54
62895;BME280;49204;44.916;37.998;2023-02-10T08:41:27;103318.25;;;-5.05;60.55
62895;BME280;49204;44.916;37.998;2023-02-10T08:43:57;103318.65;;;-4.98;60.51
62895;BME280;49204;44.916;37.998;2023-02-10T08:46:26;103316.59;;;-4.84;60.37
62895;BME280;49204;44.916;37.998;2023-02-10T08:48:54;103307.30;;;-4.69;60.15
62895;BME280;49204;44.916;37.998;2023-02-10T08:51:23;103307.80;;;-4.54;59.79
62895;BME280;49204;44.916;37.998;2023-02-10T08:53:52;103305.44;;;-4.51;59.53
62895;BME280;49204;44.916;37.998;2023-02-10T08:56:21;103296.92;;;-4.37;59.60
62895;BME280;49204;44.916;37.998;2023-02-10T08:58:50;103295.00;;;-4.19;59.87
62895;BME280;49204;44.916;37.998;2023-02-10T09:01:21;103287.85;;;-4.10;59.90
62895;BME280;49204;44.916;37.998;2023-02-10T09:03:50;103278.95;;;-4.15;59.43
62895;BME280;49204;44.916;37.998;2023-02-10T09:06:26;103283.22;;;-4.22;59.25
62895;BME280;49204;44.916;37.998;2023-02-10T09:08:51;103272.45;;;-4.23;59.24
62895;BME280;49204;44.916;37.998;2023-02-10T09:11:22;103262.64;;;-4.22;59.22
62895;BME280;49204;44.916;37.998;2023-02-10T09:13:52;103258.52;;;-3.99;59.38
62895;BME280;49204;44.916;37.998;2023-02-10T09:16:20;103254.80;;;-3.82;59.21
62895;BME280;49204;44.916;37.998;2023-02-10T09:18:49;103250.58;;;-3.67;59.07
62895;BME280;49204;44.916;37.998;2023-02-10T09:21:18;103239.89;;;-3.52;58.95
62895;BME280;49204;44.916;37.998;2023-02-10T09:23:46;103233.48;;;-3.28;58.99
62895;BME280;49204;44.916;37.998;2023-02-10T09:26:15;103232.19;;;-3.14;59.07
62895;BME280;49204;44.916;37.998;2023-02-10T09:28:44;103228.38;;;-3.05;58.89
62895;BME280;49204;44.916;37.998;2023-02-10T09:31:14;103227.05;;;-2.67;58.38
62895;BME280;49204;44.916;37.998;2023-02-10T09:33:44;103227.05;;;-2.67;58.38
62895;BME280;49204;44.916;37.998;2023-02-10T09:36:15;103228.96;;;-2.48;58.51
62895;BME280;49204;44.916;37.998;2023-02-10T09:38:44;103222.78;;;-2.36;58.29
62895;BME280;49204;44.916;37.998;2023-02-10T09:52:32;103195.11;;;-0.74;55.93
62895;BME280;49204;44.916;37.998;2023-02-10T09:54:59;103191.38;;;-0.05;55.27
62895;BME280;49204;44.916;37.998;2023-02-10T09:57:40;103181.38;;;1.20;53.68
62895;BME280;49204;44.916;37.998;2023-02-10T10:01:03;103185.70;;;2.38;52.13
62895;BME280;49204;44.916;37.998;2023-02-10T10:02:53;103180.25;;;3.70;50.14
62895;BME280;49204;44.916;37.998;2023-02-10T10:08:01;103177.19;;;4.86;48.81
62895;BME280;49204;44.916;37.998;2023-02-10T10:10:37;103175.07;;;5.27;48.31
62895;BME280;49204;44.916;37.998;2023-02-10T10:13:42;103181.16;;;5.46;48.08
62895;BME280;49204;44.916;37.998;2023-02-10T10:16:00;103180.66;;;5.44;47.57
62895;BME280;49204;44.916;37.998;2023-02-10T10:18:26;103177.56;;;6.54;46.68
62895;BME280;49204;44.916;37.998;2023-02-10T10:21:00;103167.88;;;7.72;45.63
62895;BME280;49204;44.916;37.998;2023-02-10T10:26:14;103160.92;;;5.58;47.10
62895;BME280;49204;44.916;37.998;2023-02-10T10:31:23;103163.13;;;3.04;49.58
62895;BME280;49204;44.916;37.998;2023-02-10T10:33:52;103164.61;;;2.56;50.34
62895;BME280;49204;44.916;37.998;2023-02-10T10:36:23;103164.41;;;2.24;50.81
62895;BME280;49204;44.916;37.998;2023-02-10T10:38:55;103166.90;;;1.96;50.91
62895;BME280;49204;44.916;37.998;2023-02-10T10:41:27;103163.31;;;1.68;50.89
62895;BME280;49204;44.916;37.998;2023-02-10T10:43:56;103164.50;;;1.53;51.40
62895;BME280;49204;44.916;37.998;2023-02-10T10:49:23;103154.03;;;1.05;51.77
62895;BME280;49204;44.916;37.998;2023-02-10T10:51:51;103159.22;;;0.73;52.36
62895;BME280;49204;44.916;37.998;2023-02-10T10:54:21;103168.03;;;0.25;51.85
62895;BME280;49204;44.916;37.998;2023-02-10T10:57:01;103171.04;;;0.14;52.50
62895;BME280;49204;44.916;37.998;2023-02-10T10:59:39;103167.78;;;0.18;52.29
62895;BME280;49204;44.916;37.998;2023-02-10T11:02:21;103162.64;;;0.20;52.25
62895;BME280;49204;44.916;37.998;2023-02-10T11:04:44;103165.27;;;0.31;52.42
62895;BME280;49204;44.916;37.998;2023-02-10T11:07:22;103161.45;;;0.33;52.16
62895;BME280;49204;44.916;37.998;2023-02-10T11:09:53;103156.02;;;0.27;51.97
62895;BME280;49204;44.916;37.998;2023-02-10T11:12:24;103153.96;;;0.29;51.99
62895;BME280;49204;44.916;37.998;2023-02-10T11:14:54;103155.15;;;0.26;52.01
62895;BME280;49204;44.916;37.998;2023-02-10T11:17:38;103141.35;;;0.27;52.43
62895;BME280;49204;44.916;37.998;2023-02-10T11:22:43;103138.93;;;0.42;52.37
62895;BME280;49204;44.916;37.998;2023-02-10T11:28:00;103141.14;;;0.32;52.22
62895;BME280;49204;44.916;37.998;2023-02-10T11:30:37;103128.70;;;0.35;52.15
62895;BME280;49204;44.916;37.998;2023-02-10T11:33:18;103135.98;;;0.44;52.07
62895;BME280;49204;44.916;37.998;2023-02-10T11:35:38;103141.35;;;0.69;52.25
62895;BME280;49204;44.916;37.998;2023-02-10T11:38:15;103139.20;;;0.91;52.18
62895;BME280;49204;44.916;37.998;2023-02-10T11:40:52;103132.13;;;0.99;52.05
62895;BME280;49204;44.916;37.998;2023-02-10T11:43:35;103132.06;;;0.86;51.75
62895;BME280;49204;44.916;37.998;2023-02-10T11:46:05;103130.04;;;0.67;51.79
62895;BME280;49204;44.916;37.998;2023-02-10T11:48:36;103126.94;;;0.55;51.80
62895;BME280;49204;44.916;37.998;2023-02-10T11:51:16;103116.52;;;0.32;51.85
62895;BME280;49204;44.916;37.998;2023-02-10T11:53:47;103121.11;;;0.28;52.07
62895;BME280;49204;44.916;37.998;2023-02-10T11:56:29;103116.38;;;0.29;51.98
62895;BME280;49204;44.916;37.998;2023-02-10T11:59:16;103122.72;;;0.15;52.04
62895;BME280;49204;44.916;37.998;2023-02-10T12:07:36;103128.13;;;-0.10;52.71
62895;BME280;49204;44.916;37.998;2023-02-10T12:10:50;103129.64;;;-0.05;52.84
62895;BME280;49204;44.916;37.998;2023-02-10T12:15:38;103140.67;;;-0.19;52.90
62895;BME280;49204;44.916;37.998;2023-02-10T12:18:27;103146.05;;;-0.24;52.92
62895;BME280;49204;44.916;37.998;2023-02-10T12:21:14;103141.05;;;-0.41;53.05
62895;BME280;49204;44.916;37.998;2023-02-10T12:23:50;103138.99;;;-0.48;53.63
62895;BME280;49204;44.916;37.998;2023-02-10T12:27:10;103139.75;;;-0.41;53.59
62895;BME280;49204;44.916;37.998;2023-02-10T12:29:20;103146.88;;;-0.45;53.75
62895;BME280;49204;44.916;37.998;2023-02-10T12:32:06;103139.18;;;-0.43;53.74
62895;BME280;49204;44.916;37.998;2023-02-10T12:35:02;103154.18;;;-0.46;53.85
62895;BME280;49204;44.916;37.998;2023-02-10T12:37:55;103156.73;;;-0.55;53.65
62895;BME280;49204;44.916;37.998;2023-02-10T12:49:22;103150.88;;;-0.99;54.25
62895;BME280;49204;44.916;37.998;2023-02-10T12:54:45;103151.81;;;-1.06;53.94
62895;BME280;49204;44.916;37.998;2023-02-10T12:57:29;103161.04;;;-1.11;53.92
62895;BME280;49204;44.916;37.998;2023-02-10T13:00:05;103157.00;;;-1.14;53.99
62895;BME280;49204;44.916;37.998;2023-02-10T13:02:55;103156.38;;;-1.19;54.07
62895;BME280;49204;44.916;37.998;2023-02-10T13:05:28;103154.19;;;-1.29;54.14
62895;BME280;49204;44.916;37.998;2023-02-10T13:08:02;103155.14;;;-1.27;54.31
62895;BME280;49204;44.916;37.998;2023-02-10T13:10:35;103148.17;;;-1.20;54.27
62895;BME280;49204;44.916;37.998;2023-02-10T13:13:13;103148.30;;;-1.17;54.13
62895;BME280;49204;44.916;37.998;2023-02-10T13:15:48;103142.32;;;-1.15;54.01
62895;BME280;49204;44.916;37.998;2023-02-10T13:18:32;103145.37;;;-1.14;53.94
62895;BME280;49204;44.916;37.998;2023-02-10T13:21:09;103139.03;;;-1.03;53.86
62895;BME280;49204;44.916;37.998;2023-02-10T13:23:49;103135.08;;;-1.05;53.70
62895;BME280;49204;44.916;37.998;2023-02-10T13:26:26;103138.80;;;-1.08;53.67
62895;BME280;49204;44.916;37.998;2023-02-10T13:29:21;103146.48;;;-1.09;53.68
62895;BME280;49204;44.916;37.998;2023-02-10T13:34:26;103152.67;;;-1.15;53.72
62895;BME280;49204;44.916;37.998;2023-02-10T13:36:58;103148.63;;;-1.19;53.70
62895;BME280;49204;44.916;37.998;2023-02-10T13:39:27;103145.42;;;-1.23;53.72
62895;BME280;49204;44.916;37.998;2023-02-10T13:45:36;103141.72;;;-1.28;54.05
62895;BME280;49204;44.916;37.998;2023-02-10T13:47:27;103151.65;;;-1.27;54.14
62895;BME280;49204;44.916;37.998;2023-02-10T13:50:02;103144.48;;;-1.33;54.16
62895;BME280;49204;44.916;37.998;2023-02-10T13:52:32;103138.56;;;-1.40;54.22
62895;BME280;49204;44.916;37.998;2023-02-10T13:57:51;103134.75;;;-1.57;54.45
62895;BME280;49204;44.916;37.998;2023-02-10T14:00:18;103139.46;;;-1.66;54.64
62895;BME280;49204;44.916;37.998;2023-02-10T14:03:18;103137.05;;;-1.79;54.73
62895;BME280;49204;44.916;37.998;2023-02-10T14:05:36;103138.53;;;-1.92;54.81
62895;BME280;49204;44.916;37.998;2023-02-10T14:08:26;103133.42;;;-2.17;54.98
62895;BME280;49204;44.916;37.998;2023-02-10T14:10:55;103135.84;;;-2.28;55.13
62895;BME280;49204;44.916;37.998;2023-02-10T14:13:25;103134.22;;;-2.35;55.24
62895;BME280;49204;44.916;37.998;2023-02-10T14:16:02;103132.11;;;-2.42;55.40
62895;BME280;49204;44.916;37.998;2023-02-10T14:18:32;103130.98;;;-2.55;55.46
62895;BME280;49204;44.916;37.998;2023-02-10T14:21:06;103137.27;;;-2.66;55.55
62895;BME280;49204;44.916;37.998;2023-02-10T14:23:37;103141.43;;;-2.77;55.66